Noxon, Montana
Current Conditions -  °F | °C
As of 4:53 PM on Wednesday 26 Nov 2014 (Local Time) from KMLP Reporting Station
Moderate Fog Moderate Fog  
Wind Chill: 28°   Ceiling: 100
Heat Index: 34°   Visibility: 0.25mi
Dew Point: 34°   Wind: 7mph
Humidity: 100%   Direction: NA
Pressure: 30.1"   Gusts: NA
Location:  48°N, 115.78°W
Report Text: KMLP 262353Z AUTO VRB06KT 1/4SM FG VV001 01/01 A3010 RMK AO2 SLP163 60002 T00110011 10017 20006 56004
Loading
Personal Weather Stations






























Interactive Weather Map New forecast layout! Learn more

10-Day Weather Forecast

Advertisements
Track Severe Weather on mobile